createdAt,value
2018-09-23T00:02:26.273Z,100069.00
2018-09-23T00:04:55.630Z,100071.00
2018-09-23T00:07:25.042Z,100067.00
2018-09-23T00:09:54.515Z,100068.00
2018-09-23T00:12:23.866Z,100066.00
2018-09-23T00:14:53.203Z,100069.00
2018-09-23T00:17:22.532Z,100066.00
2018-09-23T00:19:52.492Z,100065.00
2018-09-23T00:22:21.869Z,100057.00
2018-09-23T00:24:51.242Z,100065.00
2018-09-23T00:27:20.591Z,100053.00
2018-09-23T00:29:49.987Z,100051.00
2018-09-23T00:32:23.060Z,100041.00
2018-09-23T00:34:52.568Z,100045.00
2018-09-23T00:37:22.719Z,100041.00
2018-09-23T00:39:52.065Z,100050.00
2018-09-23T00:42:21.416Z,100043.00
2018-09-23T00:44:50.760Z,100040.00
2018-09-23T00:47:20.085Z,100038.00
2018-09-23T00:49:49.415Z,100036.00
2018-09-23T00:52:18.757Z,100030.00
2018-09-23T00:54:48.091Z,100026.00
2018-09-23T00:57:17.456Z,100021.00
2018-09-23T00:59:46.819Z,100027.00
2018-09-23T01:02:16.191Z,100014.00
2018-09-23T01:04:45.618Z,100018.00
2018-09-23T01:07:14.983Z,100016.00
2018-09-23T01:09:44.319Z,100011.00
2018-09-23T01:12:13.822Z,100005.00
2018-09-23T01:14:43.172Z,100001.00
2018-09-23T01:17:12.519Z,100001.00
2018-09-23T01:19:41.853Z,99992.00
2018-09-23T01:22:11.219Z,99991.00
2018-09-23T01:24:40.554Z,99993.00
2018-09-23T01:27:09.940Z,99992.00
2018-09-23T01:29:39.293Z,99991.00
2018-09-23T01:32:08.680Z,99985.00
2018-09-23T01:34:38.040Z,99981.00
2018-09-23T01:37:07.437Z,99972.00
2018-09-23T01:39:36.744Z,99966.00
2018-09-23T01:42:06.360Z,99956.00
2018-09-23T01:44:35.725Z,99949.00
2018-09-23T01:47:05.212Z,99940.00
2018-09-23T01:49:34.643Z,99937.00
2018-09-23T01:52:04.051Z,99926.00
2018-09-23T01:54:33.365Z,99920.00
2018-09-23T01:57:02.692Z,99926.00
2018-09-23T01:59:32.002Z,99916.00
2018-09-23T02:02:01.369Z,99910.00
2018-09-23T02:04:30.691Z,99905.00
2018-09-23T02:07:00.108Z,99903.00
2018-09-23T02:09:29.457Z,99911.00
2018-09-23T02:11:58.793Z,99902.00
2018-09-23T02:14:28.188Z,99905.00
2018-09-23T02:16:57.499Z,99898.00
2018-09-23T02:19:26.862Z,99891.00
2018-09-23T02:21:56.223Z,99883.00
2018-09-23T02:24:25.568Z,99873.00
2018-09-23T02:26:54.923Z,99861.00
2018-09-23T02:29:24.235Z,99864.00
2018-09-23T02:31:53.592Z,99863.00
2018-09-23T02:34:22.992Z,99855.00
2018-09-23T02:36:52.311Z,99847.00
2018-09-23T02:39:21.653Z,99833.00
2018-09-23T02:41:50.954Z,99822.00
2018-09-23T02:44:20.312Z,99815.00
2018-09-23T02:46:49.636Z,99813.00
2018-09-23T02:49:18.984Z,99802.00
2018-09-23T02:51:48.335Z,99799.00
2018-09-23T02:54:17.735Z,99793.00
2018-09-23T02:56:47.088Z,99785.00
2018-09-23T02:59:16.393Z,99775.00
2018-09-23T03:01:45.750Z,99779.00
2018-09-23T03:04:15.092Z,99774.00
2018-09-23T03:06:44.525Z,99768.00
2018-09-23T03:09:13.871Z,99765.00
2018-09-23T03:11:43.280Z,99768.00
2018-09-23T03:14:12.597Z,99757.00
2018-09-23T03:16:41.989Z,99751.00
2018-09-23T03:19:11.318Z,99744.00
2018-09-23T03:21:40.631Z,99736.00
2018-09-23T03:24:10.002Z,99730.00
2018-09-23T03:26:39.335Z,99724.00
2018-09-23T03:29:08.685Z,99722.00
2018-09-23T03:31:38.073Z,99715.00
2018-09-23T03:34:07.398Z,99721.00
2018-09-23T03:36:36.781Z,99704.00
2018-09-23T03:39:07.603Z,99693.00
2018-09-23T03:41:36.972Z,99684.00
2018-09-23T03:44:06.392Z,99684.00
2018-09-23T03:46:35.754Z,99671.00
2018-09-23T03:49:05.120Z,99670.00
2018-09-23T03:51:34.491Z,99670.00
2018-09-23T03:54:03.800Z,99660.00
2018-09-23T03:56:33.380Z,99659.00
2018-09-23T03:59:02.714Z,99656.00
2018-09-23T04:01:32.075Z,99645.00
2018-09-23T04:04:01.413Z,99632.00
2018-09-23T04:06:30.868Z,99639.00
2018-09-23T04:09:00.216Z,99636.00
2018-09-23T04:11:29.561Z,99622.00
2018-09-23T04:13:58.883Z,99616.00
2018-09-23T04:16:28.207Z,99615.00
2018-09-23T04:18:57.547Z,99623.00
2018-09-23T04:21:26.918Z,99612.00
2018-09-23T04:23:56.238Z,99613.00
2018-09-23T04:26:25.572Z,99610.00
2018-09-23T04:28:54.976Z,99614.00
2018-09-23T04:31:24.292Z,99609.00
2018-09-23T04:33:53.658Z,99607.00
2018-09-23T04:36:23.007Z,99600.00
2018-09-23T04:38:52.341Z,99606.00
2018-09-23T04:41:21.681Z,99589.00
2018-09-23T04:43:51.001Z,99585.00
2018-09-23T04:46:20.339Z,99581.00
2018-09-23T04:48:49.684Z,99561.00
2018-09-23T04:51:19.072Z,99561.00
2018-09-23T04:53:48.416Z,99561.00
2018-09-23T04:56:17.725Z,99550.00
2018-09-23T04:58:47.068Z,99548.00
2018-09-23T05:01:16.416Z,99556.00
2018-09-23T05:03:45.731Z,99553.00
2018-09-23T05:06:15.090Z,99546.00
2018-09-23T05:08:44.448Z,99546.00
2018-09-23T05:11:13.795Z,99547.00
2018-09-23T05:13:43.199Z,99536.00
2018-09-23T05:16:12.565Z,99537.00
2018-09-23T05:18:41.949Z,99536.00
2018-09-23T05:21:11.306Z,99527.00
2018-09-23T05:23:40.662Z,99530.00
2018-09-23T05:26:10.072Z,99532.00
2018-09-23T05:28:39.415Z,99531.00
2018-09-23T05:31:08.782Z,99523.00
2018-09-23T05:33:38.137Z,99527.00
2018-09-23T05:36:07.500Z,99518.00
2018-09-23T05:38:36.865Z,99520.00
2018-09-23T05:41:06.238Z,99526.00
2018-09-23T05:43:35.617Z,99524.00
2018-09-23T05:46:05.012Z,99521.00
2018-09-23T05:48:34.340Z,99518.00
2018-09-23T05:51:03.707Z,99512.00
2018-09-23T05:53:33.159Z,99516.00
2018-09-23T05:56:02.542Z,99522.00
2018-09-23T05:58:31.877Z,99513.00
2018-09-23T06:01:01.381Z,99501.00
2018-09-23T06:03:30.738Z,99510.00
2018-09-23T06:06:00.158Z,99515.00
2018-09-23T06:08:29.520Z,99502.00
2018-09-23T06:10:58.844Z,99504.00
2018-09-23T06:13:28.223Z,99504.00
2018-09-23T06:15:57.590Z,99501.00
2018-09-23T06:18:27.024Z,99484.00
2018-09-23T06:20:56.315Z,99483.00
2018-09-23T06:23:25.693Z,99488.00
2018-09-23T06:25:55.055Z,99487.00
2018-09-23T06:28:24.448Z,99485.00
2018-09-23T06:30:55.893Z,99489.00
2018-09-23T06:33:34.643Z,99482.00
2018-09-23T06:36:04.052Z,99477.00
2018-09-23T06:38:34.769Z,99483.00
2018-09-23T06:41:05.215Z,99474.00
2018-09-23T06:43:34.987Z,99488.00
2018-09-23T06:46:04.359Z,99484.00
2018-09-23T06:48:33.743Z,99487.00
2018-09-23T06:51:03.255Z,99478.00
2018-09-23T06:53:32.568Z,99484.00
2018-09-23T06:56:01.901Z,99479.00
2018-09-23T06:58:31.297Z,99472.00
2018-09-23T07:01:00.611Z,99481.00
2018-09-23T07:03:30.281Z,99475.00
2018-09-23T07:05:59.656Z,99476.00
2018-09-23T07:08:29.334Z,99472.00
2018-09-23T07:10:59.211Z,99473.00
2018-09-23T07:13:28.697Z,99472.00
2018-09-23T07:15:58.093Z,99470.00
2018-09-23T07:18:27.456Z,99466.00
2018-09-23T07:20:56.880Z,99460.00
2018-09-23T07:23:26.192Z,99462.00
2018-09-23T07:25:55.582Z,99467.00
2018-09-23T07:28:25.015Z,99456.00
2018-09-23T07:30:54.454Z,99464.00
2018-09-23T07:33:23.825Z,99450.00
2018-09-23T07:35:53.401Z,99467.00
2018-09-23T07:38:22.774Z,99462.00
2018-09-23T07:40:52.169Z,99468.00
2018-09-23T07:43:21.485Z,99461.00
2018-09-23T07:45:50.968Z,99464.00
2018-09-23T07:48:20.373Z,99465.00
2018-09-23T07:50:49.739Z,99462.00
2018-09-23T07:53:19.144Z,99468.00
2018-09-23T07:55:48.568Z,99467.00
2018-09-23T07:58:18.141Z,99458.00
2018-09-23T08:00:47.552Z,99458.00
2018-09-23T08:03:16.936Z,99447.00
2018-09-23T08:05:46.387Z,99450.00
2018-09-23T08:08:15.738Z,99440.00
2018-09-23T08:10:45.139Z,99436.00
2018-09-23T08:13:14.580Z,99439.00
2018-09-23T08:15:43.913Z,99441.00
2018-09-23T08:18:13.353Z,99434.00
2018-09-23T08:20:42.771Z,99435.00
2018-09-23T08:23:12.187Z,99430.00
2018-09-23T08:25:41.522Z,99435.00
2018-09-23T08:28:10.980Z,99431.00
2018-09-23T08:30:40.339Z,99442.00
2018-09-23T08:33:09.775Z,99432.00
2018-09-23T08:35:39.331Z,99432.00
2018-09-23T08:38:09.076Z,99430.00
2018-09-23T08:40:38.567Z,99431.00
2018-09-23T08:43:08.013Z,99426.00
2018-09-23T08:45:37.352Z,99424.00
2018-09-23T08:48:06.896Z,99430.00
2018-09-23T08:50:36.174Z,99423.00
2018-09-23T08:53:13.904Z,99421.00
2018-09-23T08:55:43.299Z,99414.00
2018-09-23T08:58:12.737Z,99414.00
2018-09-23T09:00:42.169Z,99411.00
2018-09-23T09:03:11.595Z,99412.00
2018-09-23T09:05:41.055Z,99411.00
2018-09-23T09:08:10.474Z,99395.00
2018-09-23T09:10:39.842Z,99405.00
2018-09-23T09:13:09.260Z,99402.00
2018-09-23T09:15:38.648Z,99401.00
2018-09-23T09:18:08.109Z,99393.00
2018-09-23T09:20:37.452Z,99398.00
2018-09-23T09:23:06.847Z,99401.00
2018-09-23T09:25:36.298Z,99389.00
2018-09-23T09:28:06.041Z,99389.00
2018-09-23T09:30:35.488Z,99393.00
2018-09-23T09:33:04.867Z,99384.00
2018-09-23T09:35:34.329Z,99372.00
2018-09-23T09:38:03.753Z,99384.00
2018-09-23T09:40:33.113Z,99385.00
2018-09-23T09:43:02.585Z,99377.00
2018-09-23T09:45:31.982Z,99380.00
2018-09-23T09:48:01.348Z,99368.00
2018-09-23T09:50:30.851Z,99374.00
2018-09-23T09:53:00.326Z,99370.00
2018-09-23T09:55:29.856Z,99362.00
2018-09-23T09:57:59.203Z,99358.00
2018-09-23T10:00:33.529Z,99352.00
2018-09-23T10:03:04.450Z,99351.00
2018-09-23T10:05:33.970Z,99338.00
2018-09-23T10:08:03.350Z,99336.00
2018-09-23T10:10:32.781Z,99339.00
2018-09-23T10:13:02.202Z,99332.00
2018-09-23T10:15:32.756Z,99326.00
2018-09-23T10:18:02.207Z,99313.00
2018-09-23T10:20:31.635Z,99317.00
2018-09-23T10:23:01.197Z,99308.00
2018-09-23T10:25:30.626Z,99293.00
2018-09-23T10:28:00.032Z,99302.00
2018-09-23T10:30:29.441Z,99310.00
2018-09-23T10:32:58.845Z,99301.00
2018-09-23T10:35:28.231Z,99293.00
2018-09-23T10:37:57.596Z,99292.00
2018-09-23T10:40:26.952Z,99281.00
2018-09-23T10:42:56.363Z,99280.00
2018-09-23T10:45:25.714Z,99269.00
2018-09-23T10:47:55.184Z,99278.00
2018-09-23T10:50:24.589Z,99268.00
2018-09-23T10:52:54.210Z,99270.00
2018-09-23T10:55:23.592Z,99262.00
2018-09-23T10:57:53.997Z,99260.00
2018-09-23T11:00:23.428Z,99248.00
2018-09-23T11:02:52.800Z,99249.00
2018-09-23T11:05:22.226Z,99254.00
2018-09-23T11:07:51.632Z,99259.00
2018-09-23T11:10:21.017Z,99255.00
2018-09-23T11:12:50.551Z,99251.00
2018-09-23T11:15:20.090Z,99239.00
2018-09-23T11:17:49.471Z,99230.00
2018-09-23T11:20:18.850Z,99239.00
2018-09-23T11:22:48.238Z,99225.00
2018-09-23T11:25:17.565Z,99223.00
2018-09-23T11:27:46.911Z,99211.00
2018-09-23T11:30:16.365Z,99193.00
2018-09-23T11:32:45.839Z,99184.00
2018-09-23T11:35:15.192Z,99187.00
2018-09-23T11:37:44.567Z,99178.00
2018-09-23T11:40:13.966Z,99178.00
2018-09-23T11:42:43.380Z,99164.00
2018-09-23T11:45:12.809Z,99142.00
2018-09-23T11:47:42.168Z,99152.00
2018-09-23T11:50:11.639Z,99150.00
2018-09-23T11:52:41.092Z,99134.00
2018-09-23T11:55:10.507Z,99136.00
2018-09-23T11:57:39.853Z,99127.00
2018-09-23T12:00:09.235Z,99128.00
2018-09-23T12:02:38.646Z,99110.00
2018-09-23T12:05:08.062Z,99101.00
2018-09-23T12:07:37.463Z,99109.00
2018-09-23T12:10:06.865Z,99103.00
2018-09-23T12:12:36.255Z,99094.00
2018-09-23T12:15:05.711Z,99094.00
2018-09-23T12:17:35.114Z,99078.00
2018-09-23T12:20:04.892Z,99065.00
2018-09-23T12:22:34.325Z,99060.00
2018-09-23T12:25:03.782Z,99050.00
2018-09-23T12:27:33.233Z,99055.00
2018-09-23T12:30:02.599Z,99031.00
2018-09-23T12:32:32.015Z,99027.00
2018-09-23T12:35:01.423Z,99026.00
2018-09-23T12:37:30.849Z,99019.00
2018-09-23T12:40:00.325Z,99020.00
2018-09-23T12:42:29.694Z,99010.00
2018-09-23T12:44:59.115Z,99006.00
2018-09-23T12:47:28.514Z,98979.00
2018-09-23T12:49:57.975Z,98979.00
2018-09-23T12:52:27.378Z,98984.00
2018-09-23T12:54:56.801Z,98971.00
2018-09-23T12:57:26.165Z,98950.00
2018-09-23T12:59:55.644Z,98963.00
2018-09-23T13:02:27.162Z,98933.00
2018-09-23T13:04:56.648Z,98932.00
2018-09-23T13:07:26.113Z,98943.00
2018-09-23T13:09:55.993Z,98926.00
2018-09-23T13:12:25.597Z,98918.00
2018-09-23T13:14:54.996Z,98899.00
2018-09-23T13:17:24.462Z,98891.00
2018-09-23T13:19:54.181Z,98882.00
2018-09-23T13:22:23.589Z,98880.00
2018-09-23T13:24:53.081Z,98861.00
2018-09-23T13:27:22.477Z,98861.00
2018-09-23T13:29:51.976Z,98846.00
2018-09-23T13:32:21.471Z,98814.00
2018-09-23T13:34:50.860Z,98787.00
2018-09-23T13:37:20.238Z,98780.00
2018-09-23T13:39:49.909Z,98770.00
2018-09-23T13:42:19.441Z,98768.00
2018-09-23T13:44:48.861Z,98774.00
2018-09-23T13:47:18.220Z,98778.00
2018-09-23T13:49:47.608Z,98747.00
2018-09-23T13:52:17.015Z,98763.00
2018-09-23T13:54:46.387Z,98745.00
2018-09-23T13:57:15.798Z,98754.00
2018-09-23T13:59:45.225Z,98758.00
2018-09-23T14:02:14.651Z,98746.00
2018-09-23T14:04:44.063Z,98777.00
2018-09-23T14:07:13.481Z,98763.00
2018-09-23T14:09:42.900Z,98738.00
2018-09-23T14:12:12.371Z,98727.00
2018-09-23T14:14:41.772Z,98722.00
2018-09-23T14:17:11.196Z,98721.00
2018-09-23T14:19:40.804Z,98716.00
2018-09-23T14:22:10.742Z,98717.00
2018-09-23T14:24:40.095Z,98693.00
2018-09-23T14:27:09.621Z,98700.00
2018-09-23T14:29:39.012Z,98682.00
2018-09-23T14:32:08.437Z,98700.00
2018-09-23T14:34:37.804Z,98706.00
2018-09-23T14:37:07.283Z,98677.00
2018-09-23T14:39:36.699Z,98672.00
2018-09-23T14:42:06.223Z,98678.00
2018-09-23T14:44:35.543Z,98651.00
2018-09-23T14:47:05.042Z,98652.00
2018-09-23T14:49:34.487Z,98667.00
2018-09-23T14:52:03.866Z,98648.00
2018-09-23T14:54:33.314Z,98656.00
2018-09-23T14:57:02.653Z,98648.00
2018-09-23T14:59:32.122Z,98636.00
2018-09-23T15:02:01.589Z,98623.00
2018-09-23T15:04:31.072Z,98621.00
2018-09-23T15:07:00.498Z,98591.00
2018-09-23T15:09:29.904Z,98594.00
2018-09-23T15:11:59.388Z,98652.00
2018-09-23T15:14:28.912Z,98838.00
2018-09-23T15:16:58.252Z,98960.00
2018-09-23T15:19:27.659Z,98872.00
2018-09-23T15:21:57.216Z,98826.00
2018-09-23T15:24:26.637Z,98862.00
2018-09-23T15:26:55.975Z,98869.00
2018-09-23T15:29:25.457Z,98846.00
2018-09-23T15:31:54.868Z,98903.00
2018-09-23T15:34:24.324Z,98935.00
2018-09-23T15:36:53.776Z,98908.00
2018-09-23T15:39:23.293Z,98915.00
2018-09-23T15:41:52.762Z,98901.00
2018-09-23T15:44:22.149Z,98898.00
2018-09-23T15:46:51.622Z,98909.00
2018-09-23T15:49:21.077Z,98908.00
2018-09-23T15:51:50.534Z,98893.00
2018-09-23T15:54:19.916Z,98889.00
2018-09-23T15:56:49.303Z,98899.00
2018-09-23T15:59:18.682Z,98928.00
2018-09-23T16:01:49.798Z,98939.00
2018-09-23T16:04:19.191Z,98956.00
2018-09-23T16:06:49.252Z,98933.00
2018-09-23T16:09:18.666Z,98960.00
2018-09-23T16:11:48.117Z,99002.00
2018-09-23T16:14:17.464Z,99030.00
2018-09-23T16:16:46.873Z,99066.00
2018-09-23T16:19:17.140Z,99023.00
2018-09-23T16:21:46.544Z,99046.00
2018-09-23T16:24:16.026Z,99062.00
2018-09-23T16:26:45.370Z,99083.00
2018-09-23T16:29:14.796Z,99113.00
2018-09-23T16:31:44.206Z,99095.00
2018-09-23T16:34:13.614Z,99085.00
2018-09-23T16:36:43.714Z,99113.00
2018-09-23T16:39:13.377Z,99112.00
2018-09-23T16:41:42.763Z,99094.00
2018-09-23T16:44:12.282Z,99096.00
2018-09-23T16:46:41.649Z,99108.00
2018-09-23T16:49:11.029Z,99071.00
2018-09-23T16:51:40.485Z,99065.00
2018-09-23T16:54:09.924Z,99059.00
2018-09-23T16:56:39.340Z,99089.00
2018-09-23T16:59:08.879Z,99082.00
2018-09-23T17:01:38.257Z,99110.00
2018-09-23T17:04:07.781Z,99126.00
2018-09-23T17:06:37.178Z,99136.00
2018-09-23T17:09:09.034Z,99143.00
2018-09-23T17:11:38.883Z,99138.00
2018-09-23T17:14:08.316Z,99153.00
2018-09-23T17:16:37.671Z,99130.00
2018-09-23T17:19:07.204Z,99152.00
2018-09-23T17:21:36.676Z,99174.00
2018-09-23T17:24:06.133Z,99195.00
2018-09-23T17:26:35.556Z,99258.00
2018-09-23T17:29:04.976Z,99325.00
2018-09-23T17:31:34.365Z,99324.00
2018-09-23T17:34:03.739Z,99297.00
2018-09-23T17:36:33.305Z,99315.00
2018-09-23T17:39:02.714Z,99341.00
2018-09-23T17:41:32.175Z,99270.00
2018-09-23T17:44:01.517Z,99216.00
2018-09-23T17:46:31.086Z,99212.00
2018-09-23T17:49:00.551Z,99240.00
2018-09-23T17:51:30.165Z,99273.00
2018-09-23T17:53:59.659Z,99261.00
2018-09-23T17:56:28.998Z,99309.00
2018-09-23T17:58:58.435Z,99362.00
2018-09-23T18:01:27.877Z,99397.00
2018-09-23T18:03:57.349Z,99407.00
2018-09-23T18:06:26.771Z,99428.00
2018-09-23T18:08:56.149Z,99443.00
2018-09-23T18:11:25.590Z,99449.00
2018-09-23T18:13:55.194Z,99456.00
2018-09-23T18:16:24.570Z,99453.00
2018-09-23T18:18:55.043Z,99470.00
2018-09-23T18:21:25.428Z,99490.00
2018-09-23T18:23:54.849Z,99509.00
2018-09-23T18:26:24.212Z,99547.00
2018-09-23T18:28:53.671Z,99547.00
2018-09-23T18:31:23.192Z,99563.00
2018-09-23T18:33:52.573Z,99576.00
2018-09-23T18:36:22.020Z,99588.00
2018-09-23T18:38:51.444Z,99620.00
2018-09-23T18:41:20.849Z,99641.00
2018-09-23T18:43:50.283Z,99673.00
2018-09-23T18:46:19.659Z,99692.00
2018-09-23T18:48:49.126Z,99717.00
2018-09-23T18:51:18.684Z,99741.00
2018-09-23T18:53:53.357Z,99744.00
2018-09-23T18:56:22.988Z,99749.00
2018-09-23T18:58:52.466Z,99759.00
2018-09-23T19:01:21.922Z,99785.00
2018-09-23T19:03:51.454Z,99794.00
2018-09-23T19:06:21.522Z,99807.00
2018-09-23T19:08:50.977Z,99796.00
2018-09-23T19:11:20.595Z,99801.00
2018-09-23T19:13:53.482Z,99822.00
2018-09-23T19:16:27.993Z,99821.00
2018-09-23T19:18:58.022Z,99820.00
2018-09-23T19:21:28.271Z,99817.00
2018-09-23T19:23:58.228Z,99818.00
2018-09-23T19:26:28.097Z,99832.00
2018-09-23T19:28:57.616Z,99843.00
2018-09-23T19:31:27.123Z,99846.00
2018-09-23T19:33:56.604Z,99851.00
2018-09-23T19:36:26.076Z,99866.00
2018-09-23T19:38:55.554Z,99883.00
2018-09-23T19:41:25.171Z,99884.00
2018-09-23T19:43:54.564Z,99881.00
2018-09-23T19:46:24.033Z,99881.00
2018-09-23T19:48:53.556Z,99895.00
2018-09-23T19:51:22.972Z,99923.00
2018-09-23T19:53:52.428Z,99933.00
2018-09-23T19:56:21.946Z,99943.00
2018-09-23T19:58:51.420Z,99959.00
2018-09-23T20:01:20.925Z,99971.00
2018-09-23T20:03:50.299Z,99979.00
2018-09-23T20:06:19.788Z,99988.00
2018-09-23T20:08:49.309Z,100001.00
2018-09-23T20:11:18.688Z,100014.00
2018-09-23T20:13:48.083Z,100028.00
2018-09-23T20:16:17.596Z,100037.00
2018-09-23T20:18:47.016Z,100050.00
2018-09-23T20:21:16.445Z,100061.00
2018-09-23T20:23:45.866Z,100060.00
2018-09-23T20:26:15.345Z,100079.00
2018-09-23T20:28:44.765Z,100081.00
2018-09-23T20:31:14.164Z,100094.00
2018-09-23T20:33:43.617Z,100103.00
2018-09-23T20:36:13.002Z,100117.00
2018-09-23T20:38:42.482Z,100125.00
2018-09-23T20:41:11.937Z,100130.00
2018-09-23T20:43:41.366Z,100143.00
2018-09-23T20:46:10.876Z,100155.00
2018-09-23T20:48:40.264Z,100167.00
2018-09-23T20:51:09.858Z,100179.00
2018-09-23T20:53:39.321Z,100187.00
2018-09-23T20:56:08.733Z,100194.00
2018-09-23T20:58:38.143Z,100199.00
2018-09-23T21:01:07.726Z,100205.00
2018-09-23T21:03:37.157Z,100233.00
2018-09-23T21:06:06.578Z,100232.00
2018-09-23T21:08:35.999Z,100254.00
2018-09-23T21:11:05.408Z,100259.00
2018-09-23T21:13:34.780Z,100268.00
2018-09-23T21:16:04.204Z,100274.00
2018-09-23T21:18:33.649Z,100278.00
2018-09-23T21:21:03.084Z,100282.00
2018-09-23T21:23:32.486Z,100289.00
2018-09-23T21:26:01.911Z,100297.00
2018-09-23T21:28:31.306Z,100308.00
2018-09-23T21:31:00.700Z,100315.00
2018-09-23T21:33:30.104Z,100325.00
2018-09-23T21:35:59.575Z,100332.00
2018-09-23T21:38:28.992Z,100344.00
2018-09-23T21:40:58.379Z,100348.00
2018-09-23T21:43:27.733Z,100353.00
2018-09-23T21:45:57.122Z,100354.00
2018-09-23T21:48:26.537Z,100353.00
2018-09-23T21:50:55.894Z,100353.00
2018-09-23T21:53:25.272Z,100369.00
2018-09-23T21:55:54.722Z,100371.00
2018-09-23T21:58:24.101Z,100385.00
2018-09-23T22:00:53.460Z,100393.00
2018-09-23T22:03:22.901Z,100401.00
2018-09-23T22:05:52.251Z,100406.00
2018-09-23T22:08:21.599Z,100410.00
2018-09-23T22:10:50.972Z,100417.00
2018-09-23T22:13:20.355Z,100426.00
2018-09-23T22:15:49.744Z,100427.00
2018-09-23T22:18:19.105Z,100436.00
2018-09-23T22:20:48.459Z,100450.00
2018-09-23T22:23:17.855Z,100453.00
2018-09-23T22:25:47.237Z,100468.00
2018-09-23T22:28:16.580Z,100475.00
2018-09-23T22:30:45.981Z,100481.00
2018-09-23T22:33:15.459Z,100491.00
2018-09-23T22:35:44.791Z,100496.00
2018-09-23T22:38:14.234Z,100503.00
2018-09-23T22:40:43.562Z,100510.00
2018-09-23T22:43:12.932Z,100522.00
2018-09-23T22:45:43.170Z,100524.00
2018-09-23T22:48:12.526Z,100530.00
2018-09-23T22:50:41.890Z,100542.00
2018-09-23T22:53:11.326Z,100550.00
2018-09-23T22:55:40.666Z,100556.00
2018-09-23T22:58:10.057Z,100563.00
2018-09-23T23:00:39.471Z,100581.00
2018-09-23T23:03:08.794Z,100590.00
2018-09-23T23:05:38.215Z,100596.00
2018-09-23T23:08:07.625Z,100604.00
2018-09-23T23:10:36.949Z,100609.00
2018-09-23T23:13:06.319Z,100616.00
2018-09-23T23:15:35.745Z,100627.00
2018-09-23T23:18:05.157Z,100626.00
2018-09-23T23:20:34.526Z,100632.00
2018-09-23T23:23:03.869Z,100636.00
2018-09-23T23:25:33.253Z,100642.00
2018-09-23T23:28:02.606Z,100648.00
2018-09-23T23:30:32.308Z,100658.00
2018-09-23T23:33:01.663Z,100664.00
2018-09-23T23:35:31.058Z,100667.00
2018-09-23T23:38:00.484Z,100675.00
2018-09-23T23:40:29.820Z,100676.00
2018-09-23T23:42:59.177Z,100680.00
2018-09-23T23:45:28.573Z,100686.00
2018-09-23T23:47:57.882Z,100689.00
2018-09-23T23:50:27.304Z,100696.00
2018-09-23T23:52:56.627Z,100700.00
2018-09-23T23:55:25.979Z,100707.00
2018-09-23T23:57:55.340Z,100702.00
